createdAt,value
2023-02-14T00:01:37.336Z,0.25
2023-02-14T00:04:12.653Z,0.25
2023-02-14T00:06:45.564Z,0.23
2023-02-14T00:09:20.262Z,0.24
2023-02-14T00:11:53.523Z,0.19
2023-02-14T00:14:44.146Z,0.22
2023-02-14T00:17:16.075Z,0.23
2023-02-14T00:19:48.905Z,0.11
2023-02-14T00:22:20.827Z,0.18
2023-02-14T00:24:53.562Z,0.12
2023-02-14T00:27:26.491Z,0.08
2023-02-14T00:30:02.738Z,0.04
2023-02-14T00:32:37.631Z,0.13
2023-02-14T00:35:11.320Z,0.15
2023-02-14T00:37:47.764Z,0.10
2023-02-14T00:40:20.077Z,0.07
2023-02-14T00:42:51.996Z,0.03
2023-02-14T00:45:28.731Z,0.01
2023-02-14T00:48:01.054Z,0.01
2023-02-14T00:50:33.779Z,0.04
2023-02-14T00:53:05.707Z,-0.01
2023-02-14T00:55:38.697Z,0.00
2023-02-14T00:58:10.599Z,-0.06
2023-02-14T01:00:43.372Z,0.04
2023-02-14T01:03:15.765Z,-0.14
2023-02-14T01:05:48.757Z,-0.12
2023-02-14T01:08:23.164Z,-0.12
2023-02-14T01:10:55.474Z,0.01
2023-02-14T01:13:27.368Z,-0.08
2023-02-14T01:16:08.684Z,-0.00
2023-02-14T01:18:41.955Z,-0.12
2023-02-14T01:21:18.277Z,-0.12
2023-02-14T01:23:53.931Z,-0.00
2023-02-14T01:26:27.080Z,0.10
2023-02-14T01:28:59.810Z,0.10
2023-02-14T01:31:35.679Z,0.03
2023-02-14T01:34:08.513Z,0.04
2023-02-14T01:36:41.267Z,-0.16
2023-02-14T01:39:15.764Z,-0.15
2023-02-14T01:41:50.381Z,-0.13
2023-02-14T01:44:29.090Z,-0.15
2023-02-14T01:47:05.639Z,-0.08
2023-02-14T01:53:06.877Z,-0.05
2023-02-14T01:55:47.812Z,0.15
2023-02-14T01:58:24.321Z,0.16
2023-02-14T02:01:00.297Z,0.18
2023-02-14T02:03:38.667Z,0.20
2023-02-14T02:06:30.768Z,0.22
2023-02-14T02:09:30.389Z,0.19
2023-02-14T02:12:04.161Z,0.04
2023-02-14T02:14:36.796Z,0.05
2023-02-14T02:17:45.196Z,-0.03
2023-02-14T02:21:01.006Z,-0.05
2023-02-14T02:24:13.793Z,0.01
2023-02-14T02:27:11.938Z,0.14
2023-02-14T02:30:43.932Z,0.19
2023-02-14T02:33:58.746Z,0.30
2023-02-14T02:36:46.362Z,0.55
2023-02-14T02:40:12.421Z,0.50
2023-02-14T02:43:35.335Z,0.24
2023-02-14T02:46:48.925Z,0.13
2023-02-14T02:49:45.386Z,-0.02
2023-02-14T02:52:50.074Z,0.01
2023-02-14T02:55:59.394Z,-0.07
2023-02-14T02:58:37.039Z,-0.05
2023-02-14T03:01:15.048Z,-0.04
2023-02-14T03:04:09.204Z,-0.10
2023-02-14T03:06:41.087Z,-0.05
2023-02-14T03:09:33.997Z,0.09
2023-02-14T03:12:40.029Z,0.09
2023-02-14T03:15:27.217Z,0.05
2023-02-14T03:18:47.082Z,0.02
2023-02-14T03:21:44.500Z,-0.08
2023-02-14T03:24:47.726Z,-0.14
2023-02-14T03:27:46.557Z,-0.22
2023-02-14T03:30:31.918Z,-0.33
2023-02-14T03:33:11.709Z,-0.37
2023-02-14T03:35:56.576Z,-0.50
2023-02-14T03:38:41.378Z,-0.43
2023-02-14T03:41:22.286Z,-0.52
2023-02-14T03:44:00.645Z,-0.52
2023-02-14T03:46:41.340Z,-0.53
2023-02-14T03:49:18.179Z,-0.30
2023-02-14T03:51:53.271Z,-0.25
2023-02-14T03:54:27.422Z,-0.19
2023-02-14T03:57:03.761Z,-0.16
2023-02-14T03:59:35.798Z,-0.18
2023-02-14T04:02:22.530Z,-0.18
2023-02-14T04:04:56.489Z,-0.33
2023-02-14T04:07:29.243Z,-0.48
2023-02-14T04:10:01.947Z,-0.50
2023-02-14T04:12:38.055Z,-0.45
2023-02-14T04:15:12.916Z,-0.57
2023-02-14T04:18:03.588Z,-0.49
2023-02-14T04:20:37.472Z,-0.39
2023-02-14T04:23:09.896Z,-0.45
2023-02-14T04:25:43.004Z,-0.43
2023-02-14T04:28:15.716Z,-0.46
2023-02-14T04:30:47.617Z,-0.33
2023-02-14T04:33:19.920Z,-0.40
2023-02-14T04:35:51.783Z,-0.42
2023-02-14T04:38:27.141Z,-0.48
2023-02-14T04:40:59.399Z,-0.51
2023-02-14T04:43:32.759Z,-0.55
2023-02-14T04:46:04.743Z,-0.55
2023-02-14T04:48:37.501Z,-0.60
2023-02-14T04:51:09.379Z,-0.63
2023-02-14T04:53:42.102Z,-0.55
2023-02-14T04:56:14.487Z,-0.41
2023-02-14T04:58:47.158Z,-0.37
2023-02-14T05:01:19.792Z,-0.36
2023-02-14T05:03:51.676Z,-0.39
2023-02-14T05:09:17.271Z,-0.19
2023-02-14T05:11:52.590Z,-0.20
2023-02-14T05:14:27.590Z,-0.28
2023-02-14T05:16:59.681Z,-0.35
2023-02-14T05:19:32.877Z,-0.47
2023-02-14T05:22:04.781Z,-0.54
2023-02-14T05:24:37.800Z,-0.61
2023-02-14T05:27:11.888Z,-0.68
2023-02-14T05:29:44.639Z,-0.70
2023-02-14T05:32:17.515Z,-0.66
2023-02-14T05:34:50.218Z,-0.71
2023-02-14T05:37:22.521Z,-0.65
2023-02-14T05:39:54.643Z,-0.61
2023-02-14T05:42:27.382Z,-0.59
2023-02-14T05:44:59.235Z,-0.57
2023-02-14T05:47:31.770Z,-0.64
2023-02-14T05:50:04.906Z,-0.65
2023-02-14T05:52:41.538Z,-0.67
2023-02-14T05:55:14.250Z,-0.87
2023-02-14T05:57:47.229Z,-0.87
2023-02-14T06:00:20.080Z,-0.93
2023-02-14T06:02:55.548Z,-0.84
2023-02-14T06:05:28.424Z,-0.86
2023-02-14T06:08:01.865Z,-0.77
2023-02-14T06:10:33.826Z,-0.62
2023-02-14T06:13:10.837Z,-0.71
2023-02-14T06:15:42.798Z,-0.54
2023-02-14T06:18:15.529Z,-0.51
2023-02-14T06:20:47.838Z,-0.55
2023-02-14T06:23:20.643Z,-0.61
2023-02-14T06:25:53.130Z,-0.63
2023-02-14T06:28:25.853Z,-0.58
2023-02-14T06:30:58.208Z,-0.63
2023-02-14T06:33:31.379Z,-0.68
2023-02-14T06:36:03.718Z,-0.75
2023-02-14T06:38:36.816Z,-0.76
2023-02-14T06:41:10.916Z,-0.77
2023-02-14T06:43:45.825Z,-0.71
2023-02-14T06:46:18.563Z,-0.70
2023-02-14T06:49:12.853Z,-0.61
2023-02-14T06:51:44.751Z,-0.60
2023-02-14T06:54:17.814Z,-0.58
2023-02-14T06:56:49.741Z,-0.43
2023-02-14T07:02:15.701Z,-0.35
2023-02-14T07:04:51.172Z,-0.37
2023-02-14T07:07:23.457Z,-0.40
2023-02-14T07:09:56.487Z,-0.41
2023-02-14T07:12:28.453Z,-0.32
2023-02-14T07:15:00.809Z,-0.31
2023-02-14T07:17:33.158Z,-0.24
2023-02-14T07:20:07.559Z,-0.16
2023-02-14T07:22:40.433Z,-0.12
2023-02-14T07:25:13.463Z,-0.19
2023-02-14T07:27:45.803Z,-0.18
2023-02-14T07:30:18.689Z,-0.12
2023-02-14T07:32:52.468Z,-0.12
2023-02-14T07:35:24.625Z,0.03
2023-02-14T07:37:57.966Z,0.11
2023-02-14T07:40:56.571Z,0.16
2023-02-14T07:43:30.133Z,0.21
2023-02-14T07:46:03.482Z,0.18
2023-02-14T07:48:36.286Z,0.25
2023-02-14T07:51:08.400Z,0.36
2023-02-14T07:53:41.943Z,0.62
2023-02-14T07:56:15.292Z,0.61
2023-02-14T07:58:50.126Z,0.69
2023-02-14T08:01:22.672Z,0.97
2023-02-14T08:06:50.167Z,1.27
2023-02-14T08:09:27.227Z,1.18
2023-02-14T08:12:18.865Z,1.27
2023-02-14T08:14:50.831Z,1.36
2023-02-14T08:17:24.813Z,1.59
2023-02-14T08:19:57.578Z,1.60
2023-02-14T08:22:31.309Z,1.69
2023-02-14T08:25:03.684Z,1.30
2023-02-14T08:28:04.097Z,1.33
2023-02-14T08:30:38.134Z,1.21
2023-02-14T08:33:11.844Z,1.27
2023-02-14T08:35:43.806Z,1.27
2023-02-14T08:38:16.670Z,1.32
2023-02-14T08:41:09.251Z,1.55
2023-02-14T08:43:43.151Z,1.53
2023-02-14T08:46:17.212Z,1.43
2023-02-14T08:48:53.932Z,1.72
2023-02-14T08:51:26.053Z,1.66
2023-02-14T08:53:59.024Z,2.01
2023-02-14T08:56:35.331Z,2.17
2023-02-14T08:59:09.481Z,2.13
2023-02-14T09:01:41.483Z,2.01
2023-02-14T09:04:14.870Z,2.11
2023-02-14T09:06:48.628Z,2.09
2023-02-14T09:09:21.626Z,2.05
2023-02-14T09:11:53.645Z,2.04
2023-02-14T09:14:47.414Z,1.95
2023-02-14T09:17:19.399Z,1.81
2023-02-14T09:19:52.157Z,1.77
2023-02-14T09:22:24.961Z,1.83
2023-02-14T09:25:18.257Z,2.05
2023-02-14T09:28:08.864Z,1.93
2023-02-14T09:30:42.029Z,1.95
2023-02-14T09:33:14.636Z,1.93
2023-02-14T09:36:06.084Z,2.16
2023-02-14T09:38:38.364Z,2.16
2023-02-14T09:42:00.565Z,2.30
2023-02-14T09:45:27.201Z,2.50
2023-02-14T09:48:18.033Z,2.57
2023-02-14T09:50:57.522Z,2.73
2023-02-14T09:53:35.433Z,3.04
2023-02-14T09:56:51.330Z,2.96
2023-02-14T10:00:15.132Z,3.34
2023-02-14T10:02:53.833Z,3.39
2023-02-14T10:05:31.429Z,3.16
2023-02-14T10:08:28.852Z,3.30
2023-02-14T10:11:11.424Z,3.33
2023-02-14T10:13:52.062Z,3.39
2023-02-14T10:16:34.530Z,3.23
2023-02-14T10:19:19.016Z,3.49
2023-02-14T10:22:07.442Z,3.72
2023-02-14T10:25:21.980Z,3.88
2023-02-14T10:27:58.648Z,3.96
2023-02-14T10:31:20.124Z,3.97
2023-02-14T10:33:51.981Z,4.14
2023-02-14T10:36:57.067Z,4.27
2023-02-14T10:40:17.583Z,4.46
2023-02-14T10:43:05.175Z,5.49
2023-02-14T10:46:01.682Z,6.69
2023-02-14T10:49:05.253Z,6.68
2023-02-14T10:51:59.790Z,7.54
2023-02-14T10:54:42.213Z,7.48
2023-02-14T10:57:37.317Z,7.38
2023-02-14T11:00:24.659Z,7.35
2023-02-14T11:03:05.753Z,7.61
2023-02-14T11:05:47.458Z,7.32
2023-02-14T11:08:34.690Z,8.10
2023-02-14T11:11:38.567Z,8.13
2023-02-14T11:14:28.450Z,8.21
2023-02-14T11:17:01.986Z,7.67
2023-02-14T11:19:37.323Z,8.22
2023-02-14T11:22:10.116Z,8.02
2023-02-14T11:24:42.666Z,8.25
2023-02-14T11:27:18.069Z,8.30
2023-02-14T11:29:53.257Z,8.12
2023-02-14T11:32:28.637Z,8.00
2023-02-14T11:35:05.770Z,8.46
2023-02-14T11:37:51.259Z,7.67
2023-02-14T11:40:32.837Z,7.35
2023-02-14T11:43:14.412Z,8.14
2023-02-14T11:45:49.878Z,8.20
2023-02-14T11:48:37.730Z,7.96
2023-02-14T11:51:16.482Z,8.60
2023-02-14T11:54:03.504Z,8.00
2023-02-14T11:57:13.365Z,8.27
2023-02-14T11:59:57.623Z,7.63
2023-02-14T12:02:43.624Z,8.26
2023-02-14T12:05:27.436Z,7.98
2023-02-14T12:08:03.622Z,7.88
2023-02-14T12:10:37.830Z,8.54
2023-02-14T12:13:09.548Z,8.69
2023-02-14T12:15:45.123Z,8.74
2023-02-14T12:18:41.051Z,8.21
2023-02-14T12:21:43.684Z,8.58
2023-02-14T12:24:37.301Z,7.86
2023-02-14T12:27:33.716Z,8.12
2023-02-14T12:30:20.356Z,7.58
2023-02-14T12:32:56.329Z,8.43
2023-02-14T12:35:47.384Z,8.76
2023-02-14T12:38:46.969Z,8.60
2023-02-14T12:41:35.214Z,8.59
2023-02-14T12:44:59.748Z,8.48
2023-02-14T12:48:17.088Z,7.78
2023-02-14T12:51:03.436Z,7.38
2023-02-14T12:54:05.172Z,7.67
2023-02-14T12:56:53.776Z,7.70
2023-02-14T12:59:55.841Z,7.30
2023-02-14T13:03:24.950Z,6.89
2023-02-14T13:06:13.389Z,6.79
2023-02-14T13:09:01.221Z,6.92
2023-02-14T13:12:00.087Z,7.30
2023-02-14T13:14:37.919Z,7.20
2023-02-14T13:17:39.938Z,7.35
2023-02-14T13:20:57.993Z,7.23
2023-02-14T13:23:40.479Z,7.28
2023-02-14T13:26:37.340Z,7.27
2023-02-14T13:29:18.107Z,7.24
2023-02-14T13:31:56.912Z,7.20
2023-02-14T13:34:47.571Z,7.13
2023-02-14T13:37:23.116Z,7.05
2023-02-14T13:40:21.038Z,7.14
2023-02-14T13:42:55.465Z,7.07
2023-02-14T13:45:34.905Z,6.93
2023-02-14T13:48:19.937Z,6.94
2023-02-14T13:51:05.244Z,6.89
2023-02-14T13:53:47.116Z,6.54
2023-02-14T13:56:19.564Z,6.68
2023-02-14T13:59:05.478Z,6.52
2023-02-14T14:01:50.466Z,6.23
2023-02-14T14:04:28.429Z,6.36
2023-02-14T14:07:16.820Z,6.26
2023-02-14T14:09:52.305Z,6.29
2023-02-14T14:12:27.817Z,6.25
2023-02-14T14:15:05.837Z,6.15
2023-02-14T14:17:42.793Z,6.08
2023-02-14T14:20:20.230Z,5.96
2023-02-14T14:22:56.724Z,5.95
2023-02-14T14:25:42.425Z,6.02
2023-02-14T14:28:23.334Z,5.93
2023-02-14T14:30:55.656Z,5.88
2023-02-14T14:33:34.728Z,5.88
2023-02-14T14:36:11.132Z,5.95
2023-02-14T14:38:51.060Z,5.90
2023-02-14T14:41:31.672Z,5.76
2023-02-14T14:44:07.016Z,5.71
2023-02-14T14:46:39.112Z,5.65
2023-02-14T14:49:13.482Z,5.62
2023-02-14T14:51:46.160Z,5.46
2023-02-14T14:54:25.354Z,5.38
2023-02-14T14:57:01.798Z,5.46
2023-02-14T14:59:38.564Z,5.48
2023-02-14T15:02:32.257Z,5.45
2023-02-14T15:05:30.117Z,5.38
2023-02-14T15:08:15.067Z,5.38
2023-02-14T15:11:03.305Z,5.21
2023-02-14T15:13:49.765Z,5.19
2023-02-14T15:16:35.290Z,5.14
2023-02-14T15:19:16.336Z,5.07
2023-02-14T15:21:48.646Z,5.13
2023-02-14T15:24:21.518Z,5.13
2023-02-14T15:26:53.805Z,5.03
2023-02-14T15:29:32.358Z,5.02
2023-02-14T15:32:04.874Z,4.98
2023-02-14T15:34:38.003Z,4.92
2023-02-14T15:37:12.280Z,4.94
2023-02-14T15:39:52.556Z,4.85
2023-02-14T15:42:33.887Z,4.72
2023-02-14T15:45:28.996Z,4.66
2023-02-14T15:48:05.990Z,4.55
2023-02-14T15:50:55.853Z,4.53
2023-02-14T15:53:44.025Z,4.43
2023-02-14T15:56:24.931Z,4.50
2023-02-14T15:59:03.090Z,4.48
2023-02-14T16:01:36.665Z,4.43
2023-02-14T16:04:09.393Z,4.26
2023-02-14T16:06:44.942Z,4.24
2023-02-14T16:09:31.169Z,4.11
2023-02-14T16:12:36.863Z,3.93
2023-02-14T16:15:22.405Z,3.92
2023-02-14T16:17:54.355Z,3.81
2023-02-14T16:20:41.259Z,3.72
2023-02-14T16:23:27.924Z,3.56
2023-02-14T16:26:01.182Z,3.49
2023-02-14T16:28:33.887Z,3.37
2023-02-14T16:31:11.032Z,3.31
2023-02-14T16:33:43.037Z,3.20
2023-02-14T16:36:27.431Z,3.10
2023-02-14T16:39:04.954Z,3.07
2023-02-14T16:41:45.874Z,3.11
2023-02-14T16:44:19.617Z,3.10
2023-02-14T16:46:51.932Z,3.08
2023-02-14T16:49:24.254Z,3.00
2023-02-14T16:51:57.906Z,2.92
2023-02-14T16:54:30.173Z,2.90
2023-02-14T16:57:03.997Z,2.91
2023-02-14T16:59:36.366Z,2.93
2023-02-14T17:02:08.302Z,2.88
2023-02-14T17:04:40.851Z,2.87
2023-02-14T17:07:15.554Z,2.76
2023-02-14T17:09:54.190Z,2.73
2023-02-14T17:12:35.541Z,2.70
2023-02-14T17:15:14.613Z,2.58
2023-02-14T17:17:48.867Z,5.23
2023-02-14T17:20:22.267Z,3.49
2023-02-14T17:22:55.488Z,3.04
2023-02-14T17:25:28.083Z,2.80
2023-02-14T17:28:01.007Z,2.70
2023-02-14T17:30:33.661Z,2.53
2023-02-14T17:33:05.589Z,2.56
2023-02-14T17:35:38.535Z,2.62
2023-02-14T17:38:10.514Z,2.60
2023-02-14T17:40:43.179Z,2.54
2023-02-14T17:43:15.058Z,2.35
2023-02-14T17:45:47.649Z,2.25
2023-02-14T17:48:19.563Z,2.16
2023-02-14T17:50:52.150Z,2.02
2023-02-14T17:53:24.412Z,2.00
2023-02-14T17:55:58.322Z,1.98
2023-02-14T17:58:30.318Z,1.97
2023-02-14T18:01:05.310Z,1.93
2023-02-14T18:03:38.262Z,1.92
2023-02-14T18:06:12.003Z,1.87
2023-02-14T18:08:49.228Z,1.87
2023-02-14T18:11:21.874Z,1.80
2023-02-14T18:13:55.819Z,1.79
2023-02-14T18:16:28.469Z,1.81
2023-02-14T18:19:05.449Z,1.85
2023-02-14T18:21:40.026Z,1.95
2023-02-14T18:24:12.705Z,2.06
2023-02-14T18:26:45.045Z,2.12
2023-02-14T18:29:17.321Z,2.14
2023-02-14T18:31:49.988Z,2.16
2023-02-14T18:34:22.544Z,1.99
2023-02-14T18:36:55.504Z,2.02
2023-02-14T18:39:30.339Z,2.02
2023-02-14T18:42:02.223Z,1.90
2023-02-14T18:44:35.009Z,1.88
2023-02-14T18:47:07.234Z,1.86
2023-02-14T18:49:40.002Z,1.88
2023-02-14T18:52:11.845Z,1.87
2023-02-14T18:54:44.529Z,1.83
2023-02-14T18:57:16.393Z,1.81
2023-02-14T18:59:49.254Z,1.81
2023-02-14T19:02:21.801Z,1.63
2023-02-14T19:04:55.037Z,1.68
2023-02-14T19:07:27.019Z,1.53
2023-02-14T19:10:01.371Z,1.47
2023-02-14T19:12:34.334Z,1.36
2023-02-14T19:15:07.912Z,1.40
2023-02-14T19:17:39.743Z,1.39
2023-02-14T19:20:13.279Z,1.21
2023-02-14T19:22:45.128Z,1.26
2023-02-14T19:25:18.139Z,1.08
2023-02-14T19:27:50.553Z,1.14
2023-02-14T19:30:23.392Z,1.12
2023-02-14T19:32:55.821Z,1.22
2023-02-14T19:35:28.593Z,1.06
2023-02-14T19:38:03.424Z,2.24
2023-02-14T19:40:36.258Z,1.35
2023-02-14T19:43:08.657Z,1.35
2023-02-14T19:45:41.430Z,1.25
2023-02-14T19:48:13.498Z,1.31
2023-02-14T19:50:46.740Z,1.26
2023-02-14T19:53:18.598Z,1.22
2023-02-14T19:55:51.322Z,1.21
2023-02-14T19:58:25.348Z,1.20
2023-02-14T20:01:00.499Z,1.11
2023-02-14T20:03:32.980Z,1.12
2023-02-14T20:06:06.227Z,1.19
2023-02-14T20:08:38.074Z,1.21
2023-02-14T20:11:31.855Z,1.28
2023-02-14T20:14:04.793Z,1.26
2023-02-14T20:16:38.415Z,1.33
2023-02-14T20:19:13.207Z,1.27
2023-02-14T20:21:48.759Z,1.34
2023-02-14T20:24:24.710Z,1.36
2023-02-14T20:26:58.822Z,1.44
2023-02-14T20:29:30.812Z,1.33
2023-02-14T20:32:05.277Z,1.31
2023-02-14T20:34:37.183Z,1.23
2023-02-14T20:37:11.724Z,1.25
2023-02-14T20:39:43.943Z,1.39
2023-02-14T20:42:16.470Z,1.24
2023-02-14T20:44:48.335Z,1.45
2023-02-14T20:47:21.057Z,1.48
2023-02-14T20:49:52.920Z,1.45
2023-02-14T20:52:27.311Z,1.52
2023-02-14T20:54:59.159Z,1.46
2023-02-14T20:57:32.280Z,1.43
2023-02-14T21:00:06.012Z,1.27
2023-02-14T21:02:38.718Z,1.22
2023-02-14T21:05:11.637Z,1.34
2023-02-14T21:07:44.415Z,1.36
2023-02-14T21:10:16.652Z,1.32
2023-02-14T21:12:50.486Z,1.38
2023-02-14T21:15:22.500Z,1.36
2023-02-14T21:17:55.250Z,1.21
2023-02-14T21:20:27.107Z,1.08
2023-02-14T21:23:00.224Z,1.10
2023-02-14T21:25:32.692Z,1.12
2023-02-14T21:28:05.402Z,1.23
2023-02-14T21:30:37.250Z,1.15
2023-02-14T21:33:09.991Z,1.26
2023-02-14T21:35:42.245Z,1.28
2023-02-14T21:38:14.955Z,1.40
2023-02-14T21:40:47.191Z,1.43
2023-02-14T21:43:19.901Z,1.56
2023-02-14T21:45:54.626Z,1.51
2023-02-14T21:48:45.755Z,1.50
2023-02-14T21:51:18.755Z,1.44
2023-02-14T21:53:51.792Z,1.50
2023-02-14T21:56:23.860Z,1.53
2023-02-14T21:58:57.169Z,1.55
2023-02-14T22:01:32.503Z,1.51
2023-02-14T22:04:11.035Z,1.70
2023-02-14T22:06:43.447Z,1.43
2023-02-14T22:09:17.807Z,1.33
2023-02-14T22:11:49.705Z,1.32
2023-02-14T22:14:22.670Z,1.15
2023-02-14T22:16:55.187Z,1.08
2023-02-14T22:19:28.522Z,1.06
2023-02-14T22:22:00.779Z,1.09
2023-02-14T22:24:33.885Z,1.09
2023-02-14T22:27:06.113Z,1.11
2023-02-14T22:29:38.939Z,1.19
2023-02-14T22:32:10.909Z,1.21
2023-02-14T22:34:43.715Z,1.18
2023-02-14T22:37:15.556Z,1.32
2023-02-14T22:39:48.438Z,1.35
2023-02-14T22:42:20.652Z,1.27
2023-02-14T22:44:53.360Z,1.24
2023-02-14T22:47:25.233Z,1.23
2023-02-14T22:50:00.088Z,1.27
2023-02-14T22:52:34.885Z,1.24
2023-02-14T22:55:07.872Z,1.11
2023-02-14T22:57:39.702Z,0.93
2023-02-14T23:00:13.154Z,0.91
2023-02-14T23:02:45.088Z,0.88
2023-02-14T23:05:18.103Z,0.32
2023-02-14T23:07:49.972Z,0.22
2023-02-14T23:10:22.745Z,0.20
2023-02-14T23:13:12.940Z,0.06
2023-02-14T23:16:04.189Z,0.03
2023-02-14T23:18:55.009Z,-0.05
2023-02-14T23:21:46.031Z,0.13
2023-02-14T23:24:17.870Z,0.01
2023-02-14T23:26:50.791Z,0.07
2023-02-14T23:29:23.231Z,0.17
2023-02-14T23:31:56.457Z,0.04
2023-02-14T23:34:30.602Z,0.16
2023-02-14T23:37:04.136Z,0.12
2023-02-14T23:39:36.733Z,0.10
2023-02-14T23:42:14.965Z,0.05
2023-02-14T23:44:47.483Z,-0.09
2023-02-14T23:47:20.239Z,-0.22
2023-02-14T23:49:53.163Z,-0.17
2023-02-14T23:52:25.855Z,-0.17
2023-02-14T23:54:57.700Z,-0.29
2023-02-14T23:57:30.426Z,-0.30
